sensor_id;sensor_type;location;lat;lon;timestamp;P1;durP1;ratioP1;P2;durP2;ratioP2
9310;SDS011;4694;52.464;13.480;2023-03-01T06:56:34;44.50;;;19.45;;
9310;SDS011;4694;52.464;13.480;2023-03-01T06:59:01;46.55;;;22.15;;
9310;SDS011;4694;52.464;13.480;2023-03-01T07:01:29;44.55;;;20.20;;
9310;SDS011;4694;52.464;13.480;2023-03-01T07:03:56;41.25;;;23.27;;
9310;SDS011;4694;52.464;13.480;2023-03-01T07:06:23;49.85;;;24.10;;
9310;SDS011;4694;52.464;13.480;2023-03-01T07:08:50;43.35;;;22.58;;
9310;SDS011;4694;52.464;13.480;2023-03-01T07:11:17;48.95;;;24.40;;
9310;SDS011;4694;52.464;13.480;2023-03-01T07:13:45;53.55;;;25.40;;
9310;SDS011;4694;52.464;13.480;2023-03-01T07:16:12;41.28;;;24.73;;
9310;SDS011;4694;52.464;13.480;2023-03-01T07:18:40;49.10;;;23.77;;
9310;SDS011;4694;52.464;13.480;2023-03-01T07:21:07;42.45;;;25.48;;
9310;SDS011;4694;52.464;13.480;2023-03-01T07:23:34;43.92;;;23.38;;
9310;SDS011;4694;52.464;13.480;2023-03-01T07:26:01;50.58;;;24.38;;
9310;SDS011;4694;52.464;13.480;2023-03-01T07:28:28;44.95;;;25.95;;
9310;SDS011;4694;52.464;13.480;2023-03-01T07:31:01;48.83;;;24.95;;
9310;SDS011;4694;52.464;13.480;2023-03-01T07:33:28;44.95;;;24.73;;
9310;SDS011;4694;52.464;13.480;2023-03-01T07:35:56;49.55;;;24.92;;
9310;SDS011;4694;52.464;13.480;2023-03-01T07:38:23;44.78;;;23.27;;
9310;SDS011;4694;52.464;13.480;2023-03-01T07:40:51;55.47;;;24.00;;
9310;SDS011;4694;52.464;13.480;2023-03-01T07:43:18;40.08;;;23.67;;
9310;SDS011;4694;52.464;13.480;2023-03-01T07:45:45;44.33;;;24.45;;
9310;SDS011;4694;52.464;13.480;2023-03-01T07:48:13;39.08;;;23.88;;
9310;SDS011;4694;52.464;13.480;2023-03-01T07:50:40;41.55;;;23.55;;
9310;SDS011;4694;52.464;13.480;2023-03-01T07:53:08;39.38;;;23.92;;
9310;SDS011;4694;52.464;13.480;2023-03-01T07:55:35;38.80;;;21.77;;
9310;SDS011;4694;52.464;13.480;2023-03-01T07:58:02;34.42;;;22.90;;
9310;SDS011;4694;52.464;13.480;2023-03-01T08:00:29;37.88;;;24.20;;
9310;SDS011;4694;52.464;13.480;2023-03-01T08:02:58;34.78;;;21.92;;
9310;SDS011;4694;52.464;13.480;2023-03-01T08:05:27;38.33;;;22.33;;
9310;SDS011;4694;52.464;13.480;2023-03-01T08:07:54;39.38;;;22.75;;
9310;SDS011;4694;52.464;13.480;2023-03-01T08:10:21;34.78;;;22.17;;
9310;SDS011;4694;52.464;13.480;2023-03-01T08:12:50;30.73;;;21.25;;
9310;SDS011;4694;52.464;13.480;2023-03-01T08:15:17;33.75;;;22.50;;
9310;SDS011;4694;52.464;13.480;2023-03-01T08:17:44;29.55;;;20.80;;
9310;SDS011;4694;52.464;13.480;2023-03-01T08:20:11;28.33;;;19.20;;
9310;SDS011;4694;52.464;13.480;2023-03-01T08:22:40;25.98;;;18.52;;
9310;SDS011;4694;52.464;13.480;2023-03-01T08:25:07;31.00;;;21.33;;
9310;SDS011;4694;52.464;13.480;2023-03-01T08:27:34;28.38;;;18.23;;
9310;SDS011;4694;52.464;13.480;2023-03-01T08:30:01;28.90;;;18.88;;
9310;SDS011;4694;52.464;13.480;2023-03-01T08:32:28;25.48;;;16.48;;
9310;SDS011;4694;52.464;13.480;2023-03-01T08:34:55;26.30;;;17.40;;
9310;SDS011;4694;52.464;13.480;2023-03-01T08:37:22;29.20;;;19.05;;
9310;SDS011;4694;52.464;13.480;2023-03-01T08:39:50;24.65;;;16.15;;
9310;SDS011;4694;52.464;13.480;2023-03-01T08:42:17;22.55;;;16.05;;
9310;SDS011;4694;52.464;13.480;2023-03-01T08:44:44;24.38;;;16.45;;
9310;SDS011;4694;52.464;13.480;2023-03-01T08:47:11;29.40;;;17.17;;
9310;SDS011;4694;52.464;13.480;2023-03-01T08:49:38;19.60;;;11.80;;
9310;SDS011;4694;52.464;13.480;2023-03-01T08:52:05;15.27;;;11.20;;
9310;SDS011;4694;52.464;13.480;2023-03-01T08:54:32;17.23;;;11.55;;
9310;SDS011;4694;52.464;13.480;2023-03-01T08:57:02;15.52;;;11.15;;
9310;SDS011;4694;52.464;13.480;2023-03-01T08:59:29;18.67;;;11.20;;
9310;SDS011;4694;52.464;13.480;2023-03-01T09:02:02;15.32;;;8.98;;
9310;SDS011;4694;52.464;13.480;2023-03-01T09:04:29;16.27;;;10.05;;
9310;SDS011;4694;52.464;13.480;2023-03-01T09:06:56;16.08;;;9.35;;
9310;SDS011;4694;52.464;13.480;2023-03-01T09:09:23;14.60;;;10.23;;
9310;SDS011;4694;52.464;13.480;2023-03-01T09:11:50;14.48;;;10.50;;
9310;SDS011;4694;52.464;13.480;2023-03-01T09:14:18;16.48;;;10.20;;
9310;SDS011;4694;52.464;13.480;2023-03-01T09:16:45;19.73;;;10.13;;
9310;SDS011;4694;52.464;13.480;2023-03-01T09:19:12;16.25;;;9.73;;
9310;SDS011;4694;52.464;13.480;2023-03-01T09:21:39;14.95;;;12.13;;
9310;SDS011;4694;52.464;13.480;2023-03-01T09:24:17;14.02;;;9.18;;
9310;SDS011;4694;52.464;13.480;2023-03-01T09:26:44;15.00;;;8.60;;
9310;SDS011;4694;52.464;13.480;2023-03-01T09:29:11;11.55;;;9.48;;
9310;SDS011;4694;52.464;13.480;2023-03-01T09:31:40;15.43;;;10.57;;
9310;SDS011;4694;52.464;13.480;2023-03-01T09:34:08;17.95;;;8.52;;
9310;SDS011;4694;52.464;13.480;2023-03-01T09:36:36;11.05;;;6.95;;
9310;SDS011;4694;52.464;13.480;2023-03-01T09:39:03;14.43;;;8.48;;
9310;SDS011;4694;52.464;13.480;2023-03-01T09:44:21;17.25;;;8.43;;
9310;SDS011;4694;52.464;13.480;2023-03-01T09:46:52;10.18;;;7.00;;
9310;SDS011;4694;52.464;13.480;2023-03-01T09:49:19;14.35;;;8.60;;
9310;SDS011;4694;52.464;13.480;2023-03-01T09:51:53;14.13;;;7.55;;
9310;SDS011;4694;52.464;13.480;2023-03-01T09:54:21;13.60;;;8.25;;
9310;SDS011;4694;52.464;13.480;2023-03-01T09:56:52;13.27;;;8.00;;
9310;SDS011;4694;52.464;13.480;2023-03-01T09:59:21;10.85;;;7.72;;
9310;SDS011;4694;52.464;13.480;2023-03-01T10:01:54;12.15;;;7.82;;
9310;SDS011;4694;52.464;13.480;2023-03-01T10:04:27;11.90;;;6.88;;
9310;SDS011;4694;52.464;13.480;2023-03-01T10:06:58;17.15;;;6.95;;
9310;SDS011;4694;52.464;13.480;2023-03-01T10:09:29;13.93;;;7.72;;
9310;SDS011;4694;52.464;13.480;2023-03-01T10:11:56;8.45;;;6.72;;
9310;SDS011;4694;52.464;13.480;2023-03-01T10:14:27;10.32;;;6.38;;
9310;SDS011;4694;52.464;13.480;2023-03-01T10:16:58;10.95;;;6.22;;
9310;SDS011;4694;52.464;13.480;2023-03-01T10:19:29;8.00;;;5.07;;
9310;SDS011;4694;52.464;13.480;2023-03-01T10:21:57;6.55;;;4.70;;
9310;SDS011;4694;52.464;13.480;2023-03-01T10:24:27;8.60;;;6.07;;
9310;SDS011;4694;52.464;13.480;2023-03-01T10:26:58;9.25;;;5.28;;
9310;SDS011;4694;52.464;13.480;2023-03-01T10:29:29;6.82;;;4.35;;
9310;SDS011;4694;52.464;13.480;2023-03-01T10:31:59;10.02;;;5.53;;
9310;SDS011;4694;52.464;13.480;2023-03-01T10:34:30;8.63;;;5.88;;
9310;SDS011;4694;52.464;13.480;2023-03-01T10:37:01;9.13;;;5.43;;
9310;SDS011;4694;52.464;13.480;2023-03-01T10:39:28;6.60;;;5.60;;
9310;SDS011;4694;52.464;13.480;2023-03-01T10:41:57;8.77;;;6.40;;
9310;SDS011;4694;52.464;13.480;2023-03-01T10:44:41;12.18;;;6.78;;
9310;SDS011;4694;52.464;13.480;2023-03-01T10:47:17;8.75;;;6.05;;
9310;SDS011;4694;52.464;13.480;2023-03-01T10:52:40;5.45;;;4.78;;
9310;SDS011;4694;52.464;13.480;2023-03-01T10:55:21;7.22;;;4.57;;
9310;SDS011;4694;52.464;13.480;2023-03-01T10:57:50;6.15;;;4.40;;
9310;SDS011;4694;52.464;13.480;2023-03-01T11:00:32;8.90;;;5.13;;
9310;SDS011;4694;52.464;13.480;2023-03-01T11:03:09;5.07;;;4.43;;
9310;SDS011;4694;52.464;13.480;2023-03-01T11:05:37;7.70;;;4.60;;
9310;SDS011;4694;52.464;13.480;2023-03-01T11:08:25;5.88;;;4.75;;
9310;SDS011;4694;52.464;13.480;2023-03-01T11:11:03;9.88;;;4.53;;
9310;SDS011;4694;52.464;13.480;2023-03-01T11:13:30;6.25;;;4.30;;
9310;SDS011;4694;52.464;13.480;2023-03-01T11:15:58;5.10;;;3.88;;
9310;SDS011;4694;52.464;13.480;2023-03-01T11:18:26;7.20;;;4.38;;
9310;SDS011;4694;52.464;13.480;2023-03-01T11:20:58;5.05;;;3.75;;
9310;SDS011;4694;52.464;13.480;2023-03-01T11:23:26;6.82;;;3.90;;
9310;SDS011;4694;52.464;13.480;2023-03-01T11:25:55;5.25;;;3.83;;
9310;SDS011;4694;52.464;13.480;2023-03-01T11:28:22;4.97;;;4.28;;
9310;SDS011;4694;52.464;13.480;2023-03-01T11:30:51;6.22;;;3.90;;
9310;SDS011;4694;52.464;13.480;2023-03-01T11:33:23;8.20;;;4.10;;
9310;SDS011;4694;52.464;13.480;2023-03-01T11:35:55;10.45;;;4.18;;
9310;SDS011;4694;52.464;13.480;2023-03-01T11:38:25;5.97;;;4.50;;
9310;SDS011;4694;52.464;13.480;2023-03-01T11:40:54;7.88;;;4.22;;
9310;SDS011;4694;52.464;13.480;2023-03-01T11:43:26;5.07;;;4.15;;
9310;SDS011;4694;52.464;13.480;2023-03-01T11:46:04;6.07;;;3.13;;
9310;SDS011;4694;52.464;13.480;2023-03-01T11:48:39;7.28;;;3.53;;
9310;SDS011;4694;52.464;13.480;2023-03-01T11:51:12;5.60;;;3.20;;
9310;SDS011;4694;52.464;13.480;2023-03-01T11:53:51;8.25;;;3.35;;
9310;SDS011;4694;52.464;13.480;2023-03-01T11:56:22;5.10;;;2.85;;
9310;SDS011;4694;52.464;13.480;2023-03-01T12:01:37;5.30;;;3.80;;
9310;SDS011;4694;52.464;13.480;2023-03-01T12:04:16;4.57;;;3.38;;
9310;SDS011;4694;52.464;13.480;2023-03-01T12:06:49;4.70;;;3.58;;
9310;SDS011;4694;52.464;13.480;2023-03-01T12:09:21;4.30;;;3.88;;
9310;SDS011;4694;52.464;13.480;2023-03-01T12:12:00;3.53;;;3.10;;
9310;SDS011;4694;52.464;13.480;2023-03-01T12:14:36;5.43;;;2.80;;
9310;SDS011;4694;52.464;13.480;2023-03-01T12:17:10;4.88;;;3.03;;
9310;SDS011;4694;52.464;13.480;2023-03-01T12:19:50;3.85;;;3.00;;
9310;SDS011;4694;52.464;13.480;2023-03-01T12:22:30;4.05;;;3.25;;
9310;SDS011;4694;52.464;13.480;2023-03-01T12:25:01;3.13;;;2.67;;
9310;SDS011;4694;52.464;13.480;2023-03-01T12:30:18;4.70;;;2.75;;
9310;SDS011;4694;52.464;13.480;2023-03-01T12:32:51;8.60;;;2.78;;
9310;SDS011;4694;52.464;13.480;2023-03-01T12:35:25;6.20;;;2.50;;
9310;SDS011;4694;52.464;13.480;2023-03-01T12:37:58;5.20;;;2.92;;
9310;SDS011;4694;52.464;13.480;2023-03-01T12:40:33;4.25;;;2.17;;
9310;SDS011;4694;52.464;13.480;2023-03-01T12:43:08;4.07;;;2.22;;
9310;SDS011;4694;52.464;13.480;2023-03-01T12:45:44;3.30;;;2.53;;
9310;SDS011;4694;52.464;13.480;2023-03-01T12:48:18;6.10;;;2.92;;
9310;SDS011;4694;52.464;13.480;2023-03-01T12:50:51;4.57;;;2.92;;
9310;SDS011;4694;52.464;13.480;2023-03-01T12:53:22;5.53;;;2.87;;
9310;SDS011;4694;52.464;13.480;2023-03-01T12:55:49;4.80;;;2.40;;
9310;SDS011;4694;52.464;13.480;2023-03-01T12:58:20;4.55;;;2.50;;
9310;SDS011;4694;52.464;13.480;2023-03-01T13:00:52;5.50;;;2.60;;
9310;SDS011;4694;52.464;13.480;2023-03-01T13:03:24;5.05;;;2.80;;
9310;SDS011;4694;52.464;13.480;2023-03-01T13:05:57;4.00;;;2.42;;
9310;SDS011;4694;52.464;13.480;2023-03-01T13:08:29;7.53;;;2.70;;
9310;SDS011;4694;52.464;13.480;2023-03-01T13:11:00;5.28;;;2.33;;
9310;SDS011;4694;52.464;13.480;2023-03-01T13:13:28;2.63;;;2.20;;
9310;SDS011;4694;52.464;13.480;2023-03-01T13:15:55;5.22;;;2.70;;
9310;SDS011;4694;52.464;13.480;2023-03-01T13:18:31;5.35;;;2.50;;
9310;SDS011;4694;52.464;13.480;2023-03-01T13:21:01;3.70;;;2.03;;
9310;SDS011;4694;52.464;13.480;2023-03-01T13:23:31;3.47;;;1.88;;
9310;SDS011;4694;52.464;13.480;2023-03-01T13:26:00;4.25;;;2.25;;
9310;SDS011;4694;52.464;13.480;2023-03-01T13:28:38;3.55;;;2.38;;
9310;SDS011;4694;52.464;13.480;2023-03-01T13:31:07;5.22;;;2.28;;
9310;SDS011;4694;52.464;13.480;2023-03-01T13:33:44;4.57;;;2.67;;
9310;SDS011;4694;52.464;13.480;2023-03-01T13:36:37;3.65;;;2.35;;
9310;SDS011;4694;52.464;13.480;2023-03-01T13:39:02;3.00;;;2.67;;
9310;SDS011;4694;52.464;13.480;2023-03-01T13:44:17;2.90;;;2.47;;
9310;SDS011;4694;52.464;13.480;2023-03-01T13:46:47;5.20;;;2.83;;
9310;SDS011;4694;52.464;13.480;2023-03-01T13:49:16;4.28;;;2.83;;
9310;SDS011;4694;52.464;13.480;2023-03-01T13:51:46;6.22;;;3.50;;
9310;SDS011;4694;52.464;13.480;2023-03-01T13:54:15;5.33;;;3.17;;
9310;SDS011;4694;52.464;13.480;2023-03-01T13:56:42;3.60;;;2.63;;
9310;SDS011;4694;52.464;13.480;2023-03-01T13:59:13;3.38;;;2.10;;
9310;SDS011;4694;52.464;13.480;2023-03-01T14:01:40;3.17;;;2.28;;
9310;SDS011;4694;52.464;13.480;2023-03-01T14:04:18;3.45;;;3.08;;
9310;SDS011;4694;52.464;13.480;2023-03-01T14:06:45;2.78;;;2.42;;
9310;SDS011;4694;52.464;13.480;2023-03-01T14:09:15;6.68;;;2.65;;
9310;SDS011;4694;52.464;13.480;2023-03-01T14:11:55;3.78;;;2.55;;
9310;SDS011;4694;52.464;13.480;2023-03-01T14:14:37;5.15;;;2.20;;
9310;SDS011;4694;52.464;13.480;2023-03-01T14:17:16;4.75;;;3.00;;
9310;SDS011;4694;52.464;13.480;2023-03-01T14:19:55;4.47;;;3.33;;
9310;SDS011;4694;52.464;13.480;2023-03-01T14:22:23;6.88;;;3.22;;
9310;SDS011;4694;52.464;13.480;2023-03-01T14:24:55;4.97;;;3.10;;
9310;SDS011;4694;52.464;13.480;2023-03-01T14:27:23;5.10;;;2.72;;
9310;SDS011;4694;52.464;13.480;2023-03-01T14:29:55;4.45;;;2.65;;
9310;SDS011;4694;52.464;13.480;2023-03-01T14:32:24;7.57;;;3.53;;
9310;SDS011;4694;52.464;13.480;2023-03-01T14:34:52;5.18;;;3.78;;
9310;SDS011;4694;52.464;13.480;2023-03-01T14:37:20;5.97;;;3.58;;
9310;SDS011;4694;52.464;13.480;2023-03-01T14:39:48;4.20;;;2.50;;
9310;SDS011;4694;52.464;13.480;2023-03-01T14:42:16;3.33;;;2.70;;
9310;SDS011;4694;52.464;13.480;2023-03-01T14:44:45;3.20;;;2.90;;
9310;SDS011;4694;52.464;13.480;2023-03-01T14:47:14;3.65;;;2.53;;
9310;SDS011;4694;52.464;13.480;2023-03-01T14:49:41;4.10;;;3.17;;
9310;SDS011;4694;52.464;13.480;2023-03-01T14:52:17;4.00;;;2.70;;
9310;SDS011;4694;52.464;13.480;2023-03-01T14:54:46;2.70;;;1.83;;
9310;SDS011;4694;52.464;13.480;2023-03-01T14:57:14;3.35;;;2.35;;
9310;SDS011;4694;52.464;13.480;2023-03-01T14:59:43;4.63;;;3.08;;
9310;SDS011;4694;52.464;13.480;2023-03-01T15:02:11;2.38;;;2.17;;
9310;SDS011;4694;52.464;13.480;2023-03-01T15:04:41;4.75;;;2.03;;
9310;SDS011;4694;52.464;13.480;2023-03-01T15:07:09;4.03;;;2.30;;
9310;SDS011;4694;52.464;13.480;2023-03-01T15:09:39;5.28;;;2.33;;
9310;SDS011;4694;52.464;13.480;2023-03-01T15:14:53;4.78;;;1.92;;
9310;SDS011;4694;52.464;13.480;2023-03-01T15:17:22;5.25;;;1.52;;
9310;SDS011;4694;52.464;13.480;2023-03-01T15:19:53;2.03;;;1.27;;
9310;SDS011;4694;52.464;13.480;2023-03-01T15:22:20;2.20;;;1.25;;
9310;SDS011;4694;52.464;13.480;2023-03-01T15:24:47;2.10;;;1.42;;
9310;SDS011;4694;52.464;13.480;2023-03-01T15:27:15;3.20;;;1.55;;
9310;SDS011;4694;52.464;13.480;2023-03-01T15:29:46;3.22;;;1.73;;
9310;SDS011;4694;52.464;13.480;2023-03-01T15:32:24;2.28;;;1.00;;
9310;SDS011;4694;52.464;13.480;2023-03-01T15:34:52;1.55;;;1.05;;
9310;SDS011;4694;52.464;13.480;2023-03-01T15:40:02;1.95;;;1.30;;
9310;SDS011;4694;52.464;13.480;2023-03-01T15:42:36;12.52;;;4.78;;
9310;SDS011;4694;52.464;13.480;2023-03-01T15:45:07;2.42;;;1.70;;
9310;SDS011;4694;52.464;13.480;2023-03-01T15:47:36;1.95;;;0.93;;
9310;SDS011;4694;52.464;13.480;2023-03-01T15:50:11;7.68;;;2.25;;
9310;SDS011;4694;52.464;13.480;2023-03-01T15:52:42;2.42;;;1.15;;
9310;SDS011;4694;52.464;13.480;2023-03-01T15:55:14;1.65;;;0.98;;
9310;SDS011;4694;52.464;13.480;2023-03-01T15:57:42;2.95;;;1.23;;
9310;SDS011;4694;52.464;13.480;2023-03-01T16:00:10;6.97;;;1.70;;
9310;SDS011;4694;52.464;13.480;2023-03-01T16:02:39;2.03;;;1.17;;
9310;SDS011;4694;52.464;13.480;2023-03-01T16:05:10;2.58;;;1.50;;
9310;SDS011;4694;52.464;13.480;2023-03-01T16:07:41;3.53;;;1.63;;
9310;SDS011;4694;52.464;13.480;2023-03-01T16:10:09;6.15;;;1.88;;
9310;SDS011;4694;52.464;13.480;2023-03-01T16:12:36;2.58;;;1.25;;
9310;SDS011;4694;52.464;13.480;2023-03-01T16:15:04;6.03;;;1.90;;
9310;SDS011;4694;52.464;13.480;2023-03-01T16:17:31;3.78;;;1.65;;
9310;SDS011;4694;52.464;13.480;2023-03-01T16:19:59;5.38;;;1.70;;
9310;SDS011;4694;52.464;13.480;2023-03-01T16:22:27;2.50;;;2.10;;
9310;SDS011;4694;52.464;13.480;2023-03-01T16:24:54;4.90;;;2.40;;
9310;SDS011;4694;52.464;13.480;2023-03-01T16:27:21;6.07;;;2.00;;
9310;SDS011;4694;52.464;13.480;2023-03-01T16:29:48;4.95;;;1.38;;
9310;SDS011;4694;52.464;13.480;2023-03-01T16:32:15;6.72;;;2.25;;
9310;SDS011;4694;52.464;13.480;2023-03-01T16:34:42;9.95;;;4.72;;
9310;SDS011;4694;52.464;13.480;2023-03-01T16:37:10;5.53;;;2.30;;
9310;SDS011;4694;52.464;13.480;2023-03-01T16:39:37;6.70;;;2.13;;
9310;SDS011;4694;52.464;13.480;2023-03-01T16:42:04;3.88;;;1.65;;
9310;SDS011;4694;52.464;13.480;2023-03-01T16:44:31;13.63;;;3.13;;
9310;SDS011;4694;52.464;13.480;2023-03-01T16:46:58;4.10;;;2.35;;
9310;SDS011;4694;52.464;13.480;2023-03-01T16:49:25;3.25;;;1.95;;
9310;SDS011;4694;52.464;13.480;2023-03-01T16:51:53;3.78;;;1.90;;
9310;SDS011;4694;52.464;13.480;2023-03-01T16:54:21;7.47;;;2.85;;
9310;SDS011;4694;52.464;13.480;2023-03-01T16:56:48;3.45;;;2.10;;
9310;SDS011;4694;52.464;13.480;2023-03-01T16:59:15;6.40;;;2.80;;
9310;SDS011;4694;52.464;13.480;2023-03-01T17:01:44;4.97;;;2.40;;
9310;SDS011;4694;52.464;13.480;2023-03-01T17:04:12;10.80;;;4.30;;
9310;SDS011;4694;52.464;13.480;2023-03-01T17:06:39;8.25;;;3.78;;
9310;SDS011;4694;52.464;13.480;2023-03-01T17:09:06;11.05;;;4.10;;
9310;SDS011;4694;52.464;13.480;2023-03-01T17:11:35;4.80;;;2.63;;
9310;SDS011;4694;52.464;13.480;2023-03-01T17:14:02;4.95;;;3.30;;
9310;SDS011;4694;52.464;13.480;2023-03-01T17:16:29;5.65;;;2.55;;
9310;SDS011;4694;52.464;13.480;2023-03-01T17:18:57;8.40;;;2.10;;
9310;SDS011;4694;52.464;13.480;2023-03-01T17:21:24;5.68;;;2.17;;
9310;SDS011;4694;52.464;13.480;2023-03-01T17:23:54;3.90;;;2.10;;
9310;SDS011;4694;52.464;13.480;2023-03-01T17:26:21;6.55;;;2.65;;
9310;SDS011;4694;52.464;13.480;2023-03-01T17:28:49;4.22;;;2.28;;
9310;SDS011;4694;52.464;13.480;2023-03-01T17:31:17;5.50;;;2.50;;
9310;SDS011;4694;52.464;13.480;2023-03-01T17:33:44;4.65;;;2.33;;
9310;SDS011;4694;52.464;13.480;2023-03-01T17:36:11;7.00;;;2.85;;
9310;SDS011;4694;52.464;13.480;2023-03-01T17:38:38;10.27;;;3.63;;
9310;SDS011;4694;52.464;13.480;2023-03-01T17:41:05;9.13;;;3.38;;
9310;SDS011;4694;52.464;13.480;2023-03-01T17:43:32;8.52;;;3.03;;
9310;SDS011;4694;52.464;13.480;2023-03-01T17:46:01;5.18;;;2.72;;
9310;SDS011;4694;52.464;13.480;2023-03-01T17:48:28;4.13;;;2.95;;
9310;SDS011;4694;52.464;13.480;2023-03-01T17:50:55;4.72;;;2.20;;
9310;SDS011;4694;52.464;13.480;2023-03-01T17:53:22;7.28;;;2.95;;
9310;SDS011;4694;52.464;13.480;2023-03-01T17:55:49;6.65;;;3.22;;
9310;SDS011;4694;52.464;13.480;2023-03-01T17:58:18;7.95;;;2.85;;
9310;SDS011;4694;52.464;13.480;2023-03-01T18:00:46;6.15;;;2.90;;
9310;SDS011;4694;52.464;13.480;2023-03-01T18:03:15;17.45;;;3.50;;
9310;SDS011;4694;52.464;13.480;2023-03-01T18:05:42;12.02;;;4.35;;
9310;SDS011;4694;52.464;13.480;2023-03-01T18:08:09;10.95;;;5.55;;
9310;SDS011;4694;52.464;13.480;2023-03-01T18:10:36;8.30;;;2.70;;
9310;SDS011;4694;52.464;13.480;2023-03-01T18:13:03;10.63;;;5.40;;
9310;SDS011;4694;52.464;13.480;2023-03-01T18:15:31;18.77;;;6.43;;
9310;SDS011;4694;52.464;13.480;2023-03-01T18:17:57;9.70;;;4.15;;
9310;SDS011;4694;52.464;13.480;2023-03-01T18:20:26;16.20;;;4.82;;
9310;SDS011;4694;52.464;13.480;2023-03-01T18:22:54;13.53;;;4.20;;
9310;SDS011;4694;52.464;13.480;2023-03-01T18:25:21;13.63;;;5.07;;
9310;SDS011;4694;52.464;13.480;2023-03-01T18:27:48;8.82;;;5.30;;
9310;SDS011;4694;52.464;13.480;2023-03-01T18:30:15;8.35;;;4.93;;
9310;SDS011;4694;52.464;13.480;2023-03-01T18:32:42;8.75;;;4.45;;
9310;SDS011;4694;52.464;13.480;2023-03-01T18:35:09;21.40;;;7.63;;
9310;SDS011;4694;52.464;13.480;2023-03-01T18:37:38;12.50;;;3.97;;
9310;SDS011;4694;52.464;13.480;2023-03-01T18:40:05;9.38;;;4.55;;
9310;SDS011;4694;52.464;13.480;2023-03-01T18:42:32;12.10;;;5.25;;
9310;SDS011;4694;52.464;13.480;2023-03-01T18:45:00;16.10;;;5.15;;
9310;SDS011;4694;52.464;13.480;2023-03-01T18:47:26;12.10;;;4.70;;
9310;SDS011;4694;52.464;13.480;2023-03-01T18:49:53;8.40;;;4.68;;
9310;SDS011;4694;52.464;13.480;2023-03-01T18:52:20;13.48;;;4.60;;
9310;SDS011;4694;52.464;13.480;2023-03-01T18:54:49;15.65;;;5.95;;
9310;SDS011;4694;52.464;13.480;2023-03-01T18:57:16;11.35;;;6.00;;
9310;SDS011;4694;52.464;13.480;2023-03-01T18:59:43;9.45;;;4.60;;
9310;SDS011;4694;52.464;13.480;2023-03-01T19:02:10;15.50;;;7.07;;
9310;SDS011;4694;52.464;13.480;2023-03-01T19:04:39;11.48;;;5.22;;
9310;SDS011;4694;52.464;13.480;2023-03-01T19:07:06;23.05;;;6.03;;
9310;SDS011;4694;52.464;13.480;2023-03-01T19:09:33;14.48;;;5.75;;
9310;SDS011;4694;52.464;13.480;2023-03-01T19:12:01;14.93;;;5.38;;
9310;SDS011;4694;52.464;13.480;2023-03-01T19:14:30;9.75;;;5.43;;
9310;SDS011;4694;52.464;13.480;2023-03-01T19:16:57;11.65;;;6.00;;
9310;SDS011;4694;52.464;13.480;2023-03-01T19:19:24;16.30;;;5.47;;
9310;SDS011;4694;52.464;13.480;2023-03-01T19:21:51;13.05;;;6.30;;
9310;SDS011;4694;52.464;13.480;2023-03-01T19:24:18;21.77;;;8.85;;
9310;SDS011;4694;52.464;13.480;2023-03-01T19:26:45;13.02;;;6.50;;
9310;SDS011;4694;52.464;13.480;2023-03-01T19:29:13;15.23;;;6.57;;
9310;SDS011;4694;52.464;13.480;2023-03-01T19:31:40;17.30;;;7.45;;
9310;SDS011;4694;52.464;13.480;2023-03-01T19:34:07;21.30;;;8.15;;
9310;SDS011;4694;52.464;13.480;2023-03-01T19:36:34;12.48;;;6.50;;
9310;SDS011;4694;52.464;13.480;2023-03-01T19:39:02;9.30;;;5.85;;
9310;SDS011;4694;52.464;13.480;2023-03-01T19:41:30;14.57;;;7.00;;
9310;SDS011;4694;52.464;13.480;2023-03-01T19:43:57;12.23;;;7.25;;
9310;SDS011;4694;52.464;13.480;2023-03-01T19:46:28;20.92;;;7.85;;
9310;SDS011;4694;52.464;13.480;2023-03-01T19:48:55;22.08;;;8.73;;
9310;SDS011;4694;52.464;13.480;2023-03-01T19:51:24;13.00;;;6.72;;
9310;SDS011;4694;52.464;13.480;2023-03-01T19:53:51;16.75;;;8.07;;
9310;SDS011;4694;52.464;13.480;2023-03-01T19:56:18;16.60;;;8.38;;
9310;SDS011;4694;52.464;13.480;2023-03-01T19:58:45;19.30;;;8.88;;
9310;SDS011;4694;52.464;13.480;2023-03-01T20:01:14;15.48;;;7.85;;
9310;SDS011;4694;52.464;13.480;2023-03-01T20:03:43;20.13;;;9.25;;
9310;SDS011;4694;52.464;13.480;2023-03-01T20:06:11;19.80;;;9.23;;
9310;SDS011;4694;52.464;13.480;2023-03-01T20:08:38;17.60;;;8.93;;
9310;SDS011;4694;52.464;13.480;2023-03-01T20:11:06;18.83;;;9.05;;
9310;SDS011;4694;52.464;13.480;2023-03-01T20:13:33;19.02;;;8.57;;
9310;SDS011;4694;52.464;13.480;2023-03-01T20:16:00;22.75;;;9.02;;
9310;SDS011;4694;52.464;13.480;2023-03-01T20:18:27;18.80;;;8.80;;
9310;SDS011;4694;52.464;13.480;2023-03-01T20:20:56;19.42;;;10.43;;
9310;SDS011;4694;52.464;13.480;2023-03-01T20:23:24;16.30;;;8.80;;
9310;SDS011;4694;52.464;13.480;2023-03-01T20:25:51;20.75;;;10.35;;
9310;SDS011;4694;52.464;13.480;2023-03-01T20:28:18;19.60;;;9.18;;
9310;SDS011;4694;52.464;13.480;2023-03-01T20:30:45;18.60;;;9.00;;
9310;SDS011;4694;52.464;13.480;2023-03-01T20:33:12;15.80;;;9.60;;
9310;SDS011;4694;52.464;13.480;2023-03-01T20:35:42;20.27;;;11.05;;
9310;SDS011;4694;52.464;13.480;2023-03-01T20:38:10;18.25;;;8.45;;
9310;SDS011;4694;52.464;13.480;2023-03-01T20:40:37;18.65;;;10.68;;
9310;SDS011;4694;52.464;13.480;2023-03-01T20:43:04;20.20;;;10.15;;
9310;SDS011;4694;52.464;13.480;2023-03-01T20:45:31;19.05;;;10.77;;
9310;SDS011;4694;52.464;13.480;2023-03-01T20:47:58;26.08;;;10.65;;
